createdAt,value
2023-05-15T00:02:24.798Z,25.00
2023-05-15T00:05:06.942Z,25.00
2023-05-15T00:07:41.637Z,25.00
2023-05-15T00:10:16.484Z,25.10
2023-05-15T00:12:56.229Z,25.20
2023-05-15T00:15:35.409Z,25.30
2023-05-15T00:18:12.621Z,25.30
2023-05-15T00:20:52.376Z,25.10
2023-05-15T00:23:28.501Z,25.10
2023-05-15T00:26:03.524Z,25.10
2023-05-15T00:28:40.851Z,25.10
2023-05-15T00:31:20.021Z,25.30
2023-05-15T00:33:57.771Z,25.50
2023-05-15T00:36:35.082Z,25.50
2023-05-15T00:39:11.498Z,25.70
2023-05-15T00:41:47.357Z,25.70
2023-05-15T00:44:25.863Z,25.80
2023-05-15T00:47:05.652Z,25.80
2023-05-15T00:49:42.135Z,26.00
2023-05-15T00:52:20.805Z,26.20
2023-05-15T00:55:01.795Z,26.40
2023-05-15T00:57:38.597Z,26.50
2023-05-15T01:00:19.696Z,26.50
2023-05-15T01:03:00.354Z,26.60
2023-05-15T01:05:43.783Z,26.60
2023-05-15T01:08:24.581Z,26.50
2023-05-15T01:11:04.054Z,26.50
2023-05-15T01:13:37.901Z,26.60
2023-05-15T01:16:21.033Z,26.80
2023-05-15T01:19:01.254Z,26.90
2023-05-15T01:22:17.655Z,27.20
2023-05-15T01:25:17.288Z,27.50
2023-05-15T01:28:01.854Z,28.00
2023-05-15T01:30:44.826Z,27.90
2023-05-15T01:33:32.479Z,28.30
2023-05-15T01:36:18.703Z,28.50
2023-05-15T01:39:04.090Z,28.70
2023-05-15T01:41:52.475Z,28.70
2023-05-15T01:44:34.856Z,29.20
2023-05-15T01:47:20.800Z,29.30
2023-05-15T01:50:03.744Z,29.10
2023-05-15T01:52:46.725Z,28.90
2023-05-15T01:55:25.285Z,28.70
2023-05-15T01:58:05.894Z,29.00
2023-05-15T02:00:48.552Z,29.40
2023-05-15T02:03:29.802Z,29.60
2023-05-15T02:06:10.362Z,29.70
2023-05-15T02:08:48.045Z,29.70
2023-05-15T02:11:31.789Z,30.00
2023-05-15T02:14:12.355Z,30.20
2023-05-15T02:16:51.773Z,30.20
2023-05-15T02:19:25.825Z,30.40
2023-05-15T02:22:03.161Z,30.60
2023-05-15T02:24:45.415Z,30.60
2023-05-15T02:27:31.170Z,30.00
2023-05-15T02:30:22.019Z,29.70
2023-05-15T02:33:29.018Z,29.70
2023-05-15T02:36:22.267Z,30.20
2023-05-15T02:39:03.702Z,30.40
2023-05-15T02:41:43.514Z,30.70
2023-05-15T02:44:20.808Z,30.40
2023-05-15T02:47:01.384Z,30.80
2023-05-15T02:49:54.543Z,30.90
2023-05-15T02:52:32.296Z,30.80
2023-05-15T02:55:13.249Z,30.60
2023-05-15T02:57:48.416Z,31.00
2023-05-15T03:00:25.978Z,31.20
2023-05-15T03:03:06.214Z,31.20
2023-05-15T03:05:56.252Z,31.30
2023-05-15T03:08:45.526Z,31.40
2023-05-15T03:11:31.874Z,31.40
2023-05-15T03:14:16.702Z,31.20
2023-05-15T03:17:05.641Z,30.40
2023-05-15T03:19:42.861Z,30.60
2023-05-15T03:22:21.681Z,31.10
2023-05-15T03:25:00.717Z,31.60
2023-05-15T03:27:39.303Z,32.00
2023-05-15T03:30:17.734Z,31.90
2023-05-15T03:32:55.770Z,32.00
2023-05-15T03:35:44.792Z,32.00
2023-05-15T03:38:36.164Z,32.00
2023-05-15T03:41:14.574Z,32.00
2023-05-15T03:43:54.429Z,32.00
2023-05-15T03:46:32.409Z,31.90
2023-05-15T03:49:09.865Z,31.90
2023-05-15T03:51:54.352Z,31.50
2023-05-15T03:54:39.842Z,31.10
2023-05-15T03:57:16.171Z,30.80
2023-05-15T04:00:03.645Z,30.70
2023-05-15T04:03:07.665Z,31.00
2023-05-15T04:05:46.797Z,31.30
2023-05-15T04:08:26.721Z,31.20
2023-05-15T04:11:11.117Z,31.10
2023-05-15T04:13:59.799Z,31.00
2023-05-15T04:16:52.908Z,30.80
2023-05-15T04:19:40.961Z,30.60
2023-05-15T04:22:20.499Z,30.60
2023-05-15T04:25:06.235Z,30.20
2023-05-15T04:28:08.562Z,30.10
2023-05-15T04:30:47.979Z,30.00
2023-05-15T04:33:29.035Z,30.10
2023-05-15T04:36:12.585Z,29.60
2023-05-15T04:38:56.574Z,29.50
2023-05-15T04:42:00.045Z,29.80
2023-05-15T04:44:40.533Z,30.10
2023-05-15T04:47:22.432Z,30.50
2023-05-15T04:49:58.978Z,30.40
2023-05-15T04:52:38.149Z,30.50
2023-05-15T04:55:17.600Z,30.20
2023-05-15T04:58:05.248Z,30.30
2023-05-15T05:00:50.704Z,30.00
2023-05-15T05:03:29.864Z,30.50
2023-05-15T05:06:07.821Z,30.60
2023-05-15T05:11:36.877Z,30.40
2023-05-15T05:14:17.679Z,30.80
2023-05-15T05:16:56.158Z,30.70
2023-05-15T05:19:37.103Z,31.10
2023-05-15T05:22:19.512Z,31.10
2023-05-15T05:24:58.152Z,31.00
2023-05-15T05:27:33.198Z,31.00
2023-05-15T05:30:12.836Z,30.90
2023-05-15T05:32:53.028Z,31.30
2023-05-15T05:35:33.498Z,31.40
2023-05-15T05:38:14.220Z,31.60
2023-05-15T05:40:55.196Z,31.60
2023-05-15T05:43:37.464Z,31.60
2023-05-15T05:46:20.214Z,31.50
2023-05-15T05:49:01.765Z,31.10
2023-05-15T05:51:40.054Z,31.00
2023-05-15T05:54:17.886Z,30.90
2023-05-15T05:56:55.082Z,31.00
2023-05-15T05:59:32.603Z,31.20
2023-05-15T06:02:13.673Z,31.20
2023-05-15T06:05:05.818Z,31.00
2023-05-15T06:07:41.655Z,31.40
2023-05-15T06:10:25.520Z,31.50
2023-05-15T06:13:06.506Z,31.70
2023-05-15T06:15:50.258Z,31.20
2023-05-15T06:18:35.618Z,31.10
2023-05-15T06:21:18.203Z,30.90
2023-05-15T06:24:03.769Z,31.00
2023-05-15T06:26:50.366Z,31.10
2023-05-15T06:32:35.238Z,31.30
2023-05-15T06:35:11.166Z,31.10
2023-05-15T06:37:56.402Z,31.10
2023-05-15T06:40:52.147Z,31.10
2023-05-15T06:43:40.484Z,31.00
2023-05-15T06:46:21.042Z,31.00
2023-05-15T06:49:07.416Z,30.80
2023-05-15T06:51:44.575Z,30.60
2023-05-15T06:54:47.675Z,30.70
2023-05-15T06:57:23.627Z,30.50
2023-05-15T07:00:07.590Z,30.60
2023-05-15T07:02:43.111Z,30.40
2023-05-15T07:05:27.397Z,30.30
2023-05-15T07:08:07.891Z,30.60
2023-05-15T07:10:47.268Z,30.50
2023-05-15T07:13:35.841Z,30.60
2023-05-15T07:16:18.389Z,30.70
2023-05-15T07:19:00.310Z,30.70
2023-05-15T07:21:49.136Z,30.80
2023-05-15T07:24:33.205Z,31.10
2023-05-15T07:27:16.085Z,31.00
2023-05-15T07:29:53.370Z,31.10
2023-05-15T07:32:29.253Z,31.20
2023-05-15T07:35:05.615Z,30.90
2023-05-15T07:37:53.766Z,30.70
2023-05-15T07:40:37.991Z,30.80
2023-05-15T07:43:33.321Z,30.80
2023-05-15T07:46:10.260Z,30.70
2023-05-15T07:48:47.801Z,30.60
2023-05-15T07:51:27.995Z,30.70
2023-05-15T07:54:04.758Z,30.80
2023-05-15T07:56:39.463Z,30.80
2023-05-15T07:59:17.975Z,30.40
2023-05-15T08:01:56.569Z,30.60
2023-05-15T08:04:36.619Z,30.50
2023-05-15T08:07:23.165Z,30.60
2023-05-15T08:10:12.956Z,30.70
2023-05-15T08:13:00.787Z,31.10
2023-05-15T08:15:38.420Z,30.70
2023-05-15T08:18:17.943Z,30.90
2023-05-15T08:21:00.924Z,30.60
2023-05-15T08:23:57.393Z,30.40
2023-05-15T08:26:38.388Z,30.20
2023-05-15T08:29:39.446Z,30.30
2023-05-15T08:32:28.144Z,30.30
2023-05-15T08:35:03.271Z,30.00
2023-05-15T08:37:44.426Z,30.20
2023-05-15T08:40:31.119Z,30.00
2023-05-15T08:43:30.162Z,30.20
2023-05-15T08:46:22.028Z,30.20
2023-05-15T08:49:00.948Z,30.00
2023-05-15T08:51:37.726Z,29.90
2023-05-15T08:54:16.169Z,29.70
2023-05-15T08:56:53.602Z,29.40
2023-05-15T08:59:34.199Z,29.40
2023-05-15T09:02:20.613Z,29.60
2023-05-15T09:05:00.573Z,29.70
2023-05-15T09:07:56.712Z,29.40
2023-05-15T09:10:39.227Z,29.40
2023-05-15T09:13:20.720Z,29.30
2023-05-15T09:15:58.630Z,29.20
2023-05-15T09:18:35.821Z,29.50
2023-05-15T09:21:37.241Z,29.40
2023-05-15T09:24:34.995Z,29.20
2023-05-15T09:27:15.574Z,29.00
2023-05-15T09:29:59.467Z,29.10
2023-05-15T09:32:37.483Z,28.90
2023-05-15T09:35:40.982Z,29.00
2023-05-15T09:38:27.783Z,28.90
2023-05-15T09:41:11.358Z,28.90
2023-05-15T09:43:49.123Z,29.10
2023-05-15T09:46:30.121Z,29.30
2023-05-15T09:49:13.020Z,29.30
2023-05-15T09:51:54.259Z,29.20
2023-05-15T09:54:42.216Z,29.00
2023-05-15T09:57:20.007Z,28.70
2023-05-15T10:00:07.801Z,28.80
2023-05-15T10:03:09.389Z,28.80
2023-05-15T10:05:50.243Z,28.80
2023-05-15T10:08:36.315Z,28.40
2023-05-15T10:11:20.376Z,28.30
2023-05-15T10:14:02.788Z,28.30
2023-05-15T10:16:44.894Z,28.40
2023-05-15T10:19:30.290Z,28.20
2023-05-15T10:22:10.989Z,28.20
2023-05-15T10:24:51.598Z,28.00
2023-05-15T10:27:33.180Z,28.10
2023-05-15T10:30:19.781Z,28.10
2023-05-15T10:33:01.211Z,28.10
2023-05-15T10:35:45.763Z,27.90
2023-05-15T10:38:23.440Z,27.80
2023-05-15T10:41:15.665Z,27.80
2023-05-15T10:44:06.230Z,27.80
2023-05-15T10:46:43.635Z,27.70
2023-05-15T10:49:22.210Z,27.70
2023-05-15T10:52:16.995Z,27.80
2023-05-15T10:55:08.430Z,27.70
2023-05-15T10:57:46.395Z,27.80
2023-05-15T11:00:52.307Z,27.80
2023-05-15T11:03:49.680Z,27.80
2023-05-15T11:06:37.036Z,27.70
2023-05-15T11:09:52.635Z,27.70
2023-05-15T11:12:33.179Z,27.70
2023-05-15T11:15:31.269Z,27.70
2023-05-15T11:18:21.881Z,27.60
2023-05-15T11:21:24.701Z,27.70
2023-05-15T11:24:13.686Z,27.70
2023-05-15T11:26:50.696Z,27.50
2023-05-15T11:30:30.955Z,27.50
2023-05-15T11:33:14.915Z,27.50
2023-05-15T11:36:09.047Z,27.50
2023-05-15T11:38:48.488Z,27.50
2023-05-15T11:41:32.326Z,27.30
2023-05-15T11:44:12.476Z,27.30
2023-05-15T11:46:55.772Z,27.20
2023-05-15T11:49:32.512Z,27.30
2023-05-15T11:52:26.002Z,27.00
2023-05-15T11:55:14.966Z,27.00
2023-05-15T11:58:04.788Z,27.00
2023-05-15T12:00:45.058Z,27.00
2023-05-15T12:03:33.107Z,27.00
2023-05-15T12:06:19.650Z,26.90
2023-05-15T12:09:12.950Z,26.90
2023-05-15T12:12:25.482Z,26.90
2023-05-15T12:15:13.491Z,26.70
2023-05-15T12:18:03.839Z,26.80
2023-05-15T12:21:01.560Z,26.80
2023-05-15T12:23:42.639Z,26.80
2023-05-15T12:26:25.901Z,26.90
2023-05-15T12:29:08.693Z,26.80
2023-05-15T12:31:55.499Z,26.70
2023-05-15T12:34:41.804Z,26.70
2023-05-15T12:37:25.099Z,26.70
2023-05-15T12:40:09.234Z,26.70
2023-05-15T12:43:11.851Z,26.70
2023-05-15T12:45:52.486Z,26.80
2023-05-15T12:48:46.344Z,26.60
2023-05-15T12:51:44.014Z,26.50
2023-05-15T12:54:27.841Z,26.50
2023-05-15T12:57:16.675Z,26.40
2023-05-15T13:00:18.442Z,26.30
2023-05-15T13:03:03.623Z,26.50
2023-05-15T13:05:45.929Z,26.50
2023-05-15T13:08:31.070Z,26.50
2023-05-15T13:11:12.399Z,26.50
2023-05-15T13:14:02.489Z,26.50
2023-05-15T13:17:03.499Z,26.50
2023-05-15T13:20:00.273Z,26.50
2023-05-15T13:23:06.861Z,26.20
2023-05-15T13:25:54.835Z,26.20
2023-05-15T13:28:33.859Z,26.20
2023-05-15T13:31:11.494Z,26.20
2023-05-15T13:34:04.159Z,26.10
2023-05-15T13:36:53.075Z,26.20
2023-05-15T13:39:36.871Z,26.20
2023-05-15T13:42:18.354Z,26.10
2023-05-15T13:44:59.904Z,26.10
2023-05-15T13:47:42.181Z,26.00
2023-05-15T13:50:26.350Z,26.00
2023-05-15T13:53:09.081Z,25.90
2023-05-15T13:55:45.180Z,26.00
2023-05-15T13:58:21.042Z,26.00
2023-05-15T14:01:14.174Z,26.00
2023-05-15T14:03:53.453Z,25.90
2023-05-15T14:06:37.950Z,25.90
2023-05-15T14:09:15.114Z,25.90
2023-05-15T14:11:54.854Z,25.80
2023-05-15T14:14:34.189Z,25.90
2023-05-15T14:17:25.985Z,25.70
2023-05-15T14:20:05.459Z,25.90
2023-05-15T14:23:01.373Z,25.90
2023-05-15T14:25:50.746Z,25.90
2023-05-15T14:28:39.991Z,26.00
2023-05-15T14:31:27.008Z,25.90
2023-05-15T14:34:15.076Z,25.90
2023-05-15T14:37:06.608Z,25.80
2023-05-15T14:39:49.070Z,25.90
2023-05-15T14:42:33.832Z,25.90
2023-05-15T14:45:28.100Z,26.00
2023-05-15T14:48:03.642Z,26.00
2023-05-15T14:54:14.769Z,26.00
2023-05-15T14:57:08.163Z,26.00
2023-05-15T14:59:53.675Z,25.90
2023-05-15T15:02:34.005Z,25.90
2023-05-15T15:05:25.128Z,25.90
2023-05-15T15:08:22.413Z,25.90
2023-05-15T15:11:16.918Z,26.00
2023-05-15T15:14:11.732Z,26.00
2023-05-15T15:16:55.577Z,26.00
2023-05-15T15:19:49.168Z,26.00
2023-05-15T15:22:41.652Z,26.00
2023-05-15T15:25:31.470Z,26.00
2023-05-15T15:28:34.879Z,25.90
2023-05-15T15:31:39.673Z,25.80
2023-05-15T15:34:26.429Z,25.90
2023-05-15T15:37:16.025Z,25.90
2023-05-15T15:40:07.787Z,25.90
2023-05-15T15:42:42.574Z,25.90
2023-05-15T15:45:30.900Z,25.90
2023-05-15T15:48:16.340Z,25.90
2023-05-15T15:51:06.530Z,25.90
2023-05-15T15:53:57.521Z,25.80
2023-05-15T15:56:38.293Z,25.80
2023-05-15T15:59:22.675Z,25.90
2023-05-15T16:02:11.232Z,25.80
2023-05-15T16:05:05.584Z,25.90
2023-05-15T16:07:53.402Z,25.80
2023-05-15T16:10:34.352Z,25.90
2023-05-15T16:13:21.271Z,25.90
2023-05-15T16:16:12.033Z,25.80
2023-05-15T16:19:01.088Z,25.60
2023-05-15T16:21:39.948Z,25.60
2023-05-15T16:24:20.405Z,25.70
2023-05-15T16:26:54.408Z,25.70
2023-05-15T16:29:32.846Z,25.80
2023-05-15T16:32:28.818Z,25.70
2023-05-15T16:35:09.848Z,25.70
2023-05-15T16:37:48.249Z,25.70
2023-05-15T16:40:28.871Z,25.70
2023-05-15T16:43:08.936Z,25.70
2023-05-15T16:45:47.861Z,25.70
2023-05-15T16:48:32.323Z,25.70
2023-05-15T16:51:11.658Z,25.70
2023-05-15T16:53:57.939Z,25.70
2023-05-15T16:56:40.414Z,25.60
2023-05-15T16:59:22.498Z,25.60
2023-05-15T17:02:00.553Z,25.60
2023-05-15T17:04:39.084Z,25.50
2023-05-15T17:07:18.040Z,25.60
2023-05-15T17:10:06.670Z,25.60
2023-05-15T17:12:43.758Z,25.50
2023-05-15T17:15:23.944Z,25.50
2023-05-15T17:17:59.448Z,25.50
2023-05-15T17:20:38.249Z,25.50
2023-05-15T17:23:16.109Z,25.50
2023-05-15T17:25:51.848Z,25.50
2023-05-15T17:28:47.204Z,25.40
2023-05-15T17:31:22.552Z,25.40
2023-05-15T17:33:58.687Z,25.50
2023-05-15T17:36:34.940Z,25.40
2023-05-15T17:39:12.215Z,25.30
2023-05-15T17:41:46.965Z,25.30
2023-05-15T17:44:23.147Z,25.20
2023-05-15T17:47:02.207Z,25.10
2023-05-15T17:49:39.071Z,25.10
2023-05-15T17:52:14.860Z,25.10
2023-05-15T17:54:50.543Z,25.10
2023-05-15T17:57:23.774Z,25.10
2023-05-15T18:00:02.265Z,25.10
2023-05-15T18:02:55.795Z,25.10
2023-05-15T18:05:34.100Z,25.00
2023-05-15T18:08:10.911Z,25.00
2023-05-15T18:10:50.155Z,24.90
2023-05-15T18:13:24.964Z,24.90
2023-05-15T18:16:03.440Z,24.90
2023-05-15T18:18:37.744Z,24.80
2023-05-15T18:21:11.837Z,24.80
2023-05-15T18:23:47.534Z,24.80
2023-05-15T18:26:24.406Z,24.80
2023-05-15T18:29:01.139Z,24.80
2023-05-15T18:31:34.726Z,24.80
2023-05-15T18:34:09.500Z,24.70
2023-05-15T18:36:43.363Z,24.70
2023-05-15T18:39:17.333Z,24.70
2023-05-15T18:41:54.982Z,24.50
2023-05-15T18:44:29.315Z,24.50
2023-05-15T18:47:04.459Z,24.50
2023-05-15T18:49:41.081Z,24.50
2023-05-15T18:52:14.206Z,24.60
2023-05-15T18:54:48.000Z,24.50
2023-05-15T18:57:24.105Z,24.50
2023-05-15T18:59:58.503Z,24.50
2023-05-15T19:02:36.128Z,24.50
2023-05-15T19:05:10.522Z,24.50
2023-05-15T19:07:47.228Z,24.50
2023-05-15T19:10:21.868Z,24.60
2023-05-15T19:12:57.340Z,24.50
2023-05-15T19:15:33.219Z,24.50
2023-05-15T19:18:06.836Z,24.40
2023-05-15T19:20:40.495Z,24.40
2023-05-15T19:23:14.589Z,24.40
2023-05-15T19:25:49.616Z,24.40
2023-05-15T19:28:25.097Z,24.40
2023-05-15T19:30:58.830Z,24.40
2023-05-15T19:33:34.054Z,24.40
2023-05-15T19:36:08.898Z,24.20
2023-05-15T19:38:44.194Z,24.20
2023-05-15T19:41:18.700Z,24.20
2023-05-15T19:43:55.994Z,24.30
2023-05-15T19:46:31.036Z,24.20
2023-05-15T19:49:05.549Z,24.30
2023-05-15T19:51:46.196Z,24.20
2023-05-15T19:54:20.938Z,24.20
2023-05-15T19:56:57.690Z,24.20
2023-05-15T19:59:34.748Z,24.20
2023-05-15T20:02:11.734Z,24.20
2023-05-15T20:04:46.722Z,24.20
2023-05-15T20:07:21.466Z,24.20
2023-05-15T20:09:56.992Z,24.10
2023-05-15T20:12:31.928Z,24.20
2023-05-15T20:15:11.952Z,24.10
2023-05-15T20:17:45.988Z,24.10
2023-05-15T20:20:20.368Z,24.10
2023-05-15T20:22:56.082Z,24.20
2023-05-15T20:25:30.271Z,24.10
2023-05-15T20:28:06.933Z,24.00
2023-05-15T20:30:43.905Z,24.00
2023-05-15T20:33:17.876Z,23.90
2023-05-15T20:35:52.925Z,23.90
2023-05-15T20:38:28.354Z,23.80
2023-05-15T20:41:02.894Z,23.80
2023-05-15T20:43:36.940Z,23.80
2023-05-15T20:46:15.311Z,23.80
2023-05-15T20:48:52.619Z,23.80
2023-05-15T20:51:25.751Z,23.80
2023-05-15T20:53:59.685Z,23.80
2023-05-15T20:56:32.961Z,23.80
2023-05-15T20:59:07.896Z,23.80
2023-05-15T21:01:43.862Z,23.70
2023-05-15T21:04:19.156Z,23.70
2023-05-15T21:06:53.135Z,23.60
2023-05-15T21:09:29.455Z,23.50
2023-05-15T21:12:04.494Z,23.50
2023-05-15T21:14:38.021Z,23.50
2023-05-15T21:17:13.212Z,23.40
2023-05-15T21:19:50.076Z,23.40
2023-05-15T21:22:24.576Z,23.40
2023-05-15T21:24:57.983Z,23.50
2023-05-15T21:27:33.149Z,23.50
2023-05-15T21:30:10.308Z,23.50
2023-05-15T21:32:45.729Z,23.50
2023-05-15T21:35:20.242Z,23.50
2023-05-15T21:37:57.331Z,23.50
2023-05-15T21:40:30.411Z,23.50
2023-05-15T21:43:04.641Z,23.40
2023-05-15T21:45:39.622Z,23.40
2023-05-15T21:48:15.006Z,23.30
2023-05-15T21:50:50.107Z,23.30
2023-05-15T21:53:23.325Z,23.40
2023-05-15T21:56:06.256Z,23.30
2023-05-15T21:58:41.099Z,23.20
2023-05-15T22:01:16.766Z,23.10
2023-05-15T22:04:00.529Z,23.20
2023-05-15T22:06:34.063Z,23.20
2023-05-15T22:09:08.331Z,23.20
2023-05-15T22:11:41.436Z,23.30
2023-05-15T22:14:15.357Z,23.20
2023-05-15T22:16:49.102Z,23.20
2023-05-15T22:19:33.161Z,23.20
2023-05-15T22:22:09.596Z,23.20
2023-05-15T22:24:42.846Z,23.30
2023-05-15T22:27:18.465Z,23.40
2023-05-15T22:29:51.572Z,23.50
2023-05-15T22:32:24.722Z,23.50
2023-05-15T22:35:03.327Z,23.60
2023-05-15T22:37:41.320Z,23.80
2023-05-15T22:40:16.969Z,24.10
2023-05-15T22:42:52.373Z,24.30
2023-05-15T22:45:29.348Z,24.70
2023-05-15T22:48:03.368Z,25.20
2023-05-15T22:50:39.442Z,25.40
2023-05-15T22:53:13.899Z,25.70
2023-05-15T22:55:50.068Z,26.00
2023-05-15T22:58:24.281Z,26.40
2023-05-15T23:01:00.577Z,26.80
2023-05-15T23:03:35.509Z,27.10
2023-05-15T23:06:13.880Z,27.40
2023-05-15T23:08:47.714Z,27.90
2023-05-15T23:11:21.926Z,28.40
2023-05-15T23:13:58.468Z,29.00
2023-05-15T23:16:32.012Z,29.60
2023-05-15T23:19:07.128Z,29.80
2023-05-15T23:21:46.774Z,30.10
2023-05-15T23:24:27.550Z,30.70
2023-05-15T23:27:01.774Z,31.10
2023-05-15T23:29:37.448Z,31.40
2023-05-15T23:32:13.281Z,31.40
2023-05-15T23:34:50.196Z,31.40
2023-05-15T23:37:27.253Z,31.50
2023-05-15T23:40:00.806Z,31.60
2023-05-15T23:42:35.740Z,31.90
2023-05-15T23:45:09.840Z,32.40
2023-05-15T23:47:43.585Z,32.80
2023-05-15T23:50:22.399Z,33.30
2023-05-15T23:53:00.383Z,33.70
2023-05-15T23:55:38.239Z,34.10
2023-05-15T23:58:11.976Z,34.80
